NCAR-RAP Real-Time Weather Data

Output produced by METARs form (19 June 2019  11:57 UTC)
found at http://weather.rap.ucar.edu/surface/
 
KSTC 191153Z 00000KT 10SM CLR 14/12 A2988 RMK AO2 SLP123 T01390122 10139 20106 53001
KSTC 191053Z AUTO 10SM CLR 12/11 A2986 RMK AO2 SLP118 T01220111
KSTC 190953Z AUTO 00000KT 9SM CLR 11/11 A2987 RMK AO2 SLP123 T01060106
KSTC 190853Z AUTO 10SM CLR 12/12 A2987 RMK AO2 SLP123 T01220117 58010
KSTC 190753Z AUTO 04004KT 10SM CLR 13/12 A2988 RMK AO2 SLP124 T01330122
KSTC 190653Z AUTO 02003KT 10SM CLR 13/12 A2990 RMK AO2 SLP132 T01280117
KSTC 190553Z AUTO 00000KT 10SM CLR 13/12 A2991 RMK AO2 SLP134 T01280122 10222 20128 402440094 50001
KSTC 190453Z AUTO 00000KT 10SM CLR 14/13 A2991 RMK AO2 SLP137 T01440128
KSTC 190353Z 36003KT 10SM FEW065 17/13 A2991 RMK AO2 SLP135 T01670133
KSTC 190253Z 36004KT 10SM BKN060 17/13 A2990 RMK AO2 SLP132 T01720133 51003
KSTC 190153Z 02004KT 10SM FEW060 SCT090 20/13 A2990 RMK AO2 SLP129 T02000128
KSTC 190053Z 34005KT 10SM FEW055 BKN095 21/11 A2990 RMK AO2 SLP130 T02110111
KSTC 182353Z 31004KT 10SM BKN090 22/11 A2989 RMK AO2 SLP129 T02220111 10244 20206 56010
KSTC 182253Z 32003KT 10SM BKN085 22/11 A2989 RMK AO2 SLP131 T02220106
KSTC 182153Z 35006KT 10SM FEW048 23/11 A2991 RMK AO2 SLP135 T02330106
KSTC 182053Z 33008KT 10SM FEW080 23/11 A2992 RMK AO2 SLP139 T02280111 56012
KSTC 181953Z 01005KT 10SM FEW044 23/10 A2992 RMK AO2 SLP140 T02330100
KSTC 181853Z 01005KT 10SM FEW070 22/11 A2994 RMK AO2 SLP146 T02220111
KSTC 181753Z 33009KT 10SM FEW033 21/11 A2996 RMK AO2 SLP153 T02110111 10211 20128 56012
KSTC 181653Z 35007KT 10SM SCT029 21/12 A2996 RMK AO2 SLP154 T02060122